Time;durP1;ratioP1;P1;durP2;ratioP2;P2;SDS_P1;SDS_P2;PMS_P1;PMS_P2;Temp;Humidity;BMP_temperature;BMP_pressure;BME280_temperature;BME280_humidity;BME280_pressure;Samples;Min_cycle;Max_cycle;Signal;HPM_P1;HPM_P2
2021/09/30 00:01:58;;;;;;;;;;;;;;;;;;5133075;28;19934;-76
2021/09/30 00:04:24;;;;;;;;;;;;;;;;;;5133647;28;19931;-75
2021/09/30 00:06:50;;;;;;;;;;;;;;;;;;5133397;28;20017;-75
2021/09/30 00:09:17;;;;;;;;;;;;;;;;;;5133274;28;19924;-75
2021/09/30 00:11:47;;;;;;;;;;;;;;;;;;5133342;28;19923;-75
2021/09/30 00:14:19;;;;;;;;;;;;;;;;;;5133055;28;19923;-75
2021/09/30 00:17:03;;;;;;;;;;;;;;;;;;5133267;28;20276;-75
2021/09/30 00:36:03;;;;;;;;;;;;;;;;;;5131606;28;19923;-75
2021/09/30 00:46:52;;;;;;;;;;;;;;;;;;5136697;27;19934;-75
2021/09/30 00:49:29;;;;;;;;;;;;;;;;;;5136595;27;20391;-76
2021/09/30 00:52:01;;;;;;;;;;;;;;;;;;5136852;27;20026;-75
2021/09/30 01:46:52;;;;;;;;;;;;;;;;;;5135814;27;20334;-76
2021/09/30 02:19:39;;;;;;;;;;;;;;;;;;5135212;27;20403;-76
2021/09/30 02:22:19;;;;;;;;;;;;;;;;;;5134802;27;19930;-76
2021/09/30 02:24:56;;;;;;;;;;;;;;;;;;5134652;27;19923;-75
2021/09/30 02:27:50;;;;;;;;;;;;;;;;;;5135265;27;19959;-75
2021/09/30 02:30:51;;;;;;;;;;;;;;;;;;5134866;27;19923;-76
2021/09/30 02:58:15;;;;;;;;;;;;;;;;;;5134136;27;19956;-76
2021/09/30 03:00:41;;;;;;;;;;;;;;;;;;5134305;27;20258;-76
2021/09/30 03:03:07;;;;;;;;;;;;;;;;;;5133639;27;19923;-75
2021/09/30 03:05:33;;;;;;;;;;;;;;;;;;5134473;27;19923;-75
2021/09/30 03:08:00;;;;;;;;;;;;;;;;;;5134107;27;19929;-75
2021/09/30 03:10:26;;;;;;;;;;;;;;;;;;5134007;27;19956;-75
2021/09/30 03:12:52;;;;;;;;;;;;;;;;;;5134065;27;19930;-76
2021/09/30 03:15:29;;;;;;;;;;;;;;;;;;5134060;27;19934;-75
2021/09/30 03:18:01;;;;;;;;;;;;;;;;;;5134129;27;19930;-76
2021/09/30 03:20:31;;;;;;;;;;;;;;;;;;5134181;27;19923;-75
2021/09/30 03:22:56;;;;;;;;;;;;;;;;;;5133557;27;19976;-75
2021/09/30 03:25:22;;;;;;;;;;;;;;;;;;5134113;27;19924;-75
2021/09/30 03:27:49;;;;;;;;;;;;;;;;;;5133368;27;19928;-75
2021/09/30 03:30:15;;;;;;;;;;;;;;;;;;5133953;27;19924;-75
2021/09/30 03:32:41;;;;;;;;;;;;;;;;;;5133829;27;19923;-75
2021/09/30 03:35:08;;;;;;;;;;;;;;;;;;5133636;27;19931;-76
2021/09/30 03:37:34;;;;;;;;;;;;;;;;;;5133896;27;19924;-76
2021/09/30 03:40:00;;;;;;;;;;;;;;;;;;5133363;27;20293;-76
2021/09/30 03:42:26;;;;;;;;;;;;;;;;;;5133532;27;20393;-76
2021/09/30 03:44:53;;;;;;;;;;;;;;;;;;5133908;27;19923;-75
2021/09/30 03:47:20;;;;;;;;;;;;;;;;;;5133848;27;19923;-75
2021/09/30 03:49:48;;;;;;;;;;;;;;;;;;5133176;27;19923;-76
2021/09/30 03:52:20;;;;;;;;;;;;;;;;;;5133436;27;19924;-75
2021/09/30 03:54:54;;;;;;;;;;;;;;;;;;5133304;28;19923;-75
2021/09/30 03:57:35;;;;;;;;;;;;;;;;;;5133438;28;20254;-75
2021/09/30 04:00:01;;;;;;;;;;;;;;;;;;5133484;28;19967;-75
2021/09/30 04:02:27;;;;;;;;;;;;;;;;;;5133558;28;19927;-75
2021/09/30 04:04:53;;;;;;;;;;;;;;;;;;5133398;28;19923;-75
2021/09/30 04:07:20;;;;;;;;;;;;;;;;;;5133330;28;20373;-75
2021/09/30 04:09:46;;;;;;;;;;;;;;;;;;5133211;28;19930;-76
2021/09/30 04:12:13;;;;;;;;;;;;;;;;;;5133565;28;19946;-76
2021/09/30 04:14:39;;;;;;;;;;;;;;;;;;5133917;27;19927;-76
2021/09/30 04:17:05;;;;;;;;;;;;;;;;;;5137453;27;19923;-77
2021/09/30 04:19:32;;;;;;;;;;;;;;;;;;5137809;27;19930;-78
2021/09/30 04:21:58;;;;;;;;;;;;;;;;;;5137037;27;19930;-76
2021/09/30 04:24:24;;;;;;;;;;;;;;;;;;5137567;27;19946;-76
2021/09/30 04:26:51;;;;;;;;;;;;;;;;;;5136892;27;19924;-76
2021/09/30 04:29:17;;;;;;;;;;;;;;;;;;5137417;27;19923;-76
2021/09/30 04:31:43;;;;;;;;;;;;;;;;;;5136786;27;20289;-76
2021/09/30 04:34:09;;;;;;;;;;;;;;;;;;5137459;27;19927;-76
2021/09/30 04:36:36;;;;;;;;;;;;;;;;;;5137444;27;19924;-76
2021/09/30 04:39:02;;;;;;;;;;;;;;;;;;5136605;27;20289;-76
2021/09/30 04:41:28;;;;;;;;;;;;;;;;;;5137124;27;19927;-76
2021/09/30 04:43:55;;;;;;;;;;;;;;;;;;5136567;27;20301;-77
2021/09/30 04:46:21;;;;;;;;;;;;;;;;;;5136859;27;19923;-77
2021/09/30 04:48:47;;;;;;;;;;;;;;;;;;5136856;27;19923;-77
2021/09/30 04:51:14;;;;;;;;;;;;;;;;;;5136667;27;20282;-77
2021/09/30 04:53:40;;;;;;;;;;;;;;;;;;5136435;27;20339;-77
2021/09/30 04:56:06;;;;;;;;;;;;;;;;;;5137031;27;19924;-77
2021/09/30 04:58:33;;;;;;;;;;;;;;;;;;5136611;27;20374;-77
2021/09/30 05:00:59;;;;;;;;;;;;;;;;;;5136179;27;19923;-77
2021/09/30 05:03:25;;;;;;;;;;;;;;;;;;5136805;27;19923;-77
2021/09/30 05:05:51;;;;;;;;;;;;;;;;;;5136218;27;19924;-77
2021/09/30 05:08:18;;;;;;;;;;;;;;;;;;5136780;27;19930;-77
2021/09/30 05:10:45;;;;;;;;;;;;;;;;;;5136450;27;19931;-77
2021/09/30 05:13:16;;;;;;;;;;;;;;;;;;5136623;27;19928;-77
2021/09/30 05:15:42;;;;;;;;;;;;;;;;;;5136175;27;20014;-75
2021/09/30 05:18:10;;;;;;;;;;;;;;;;;;5136433;27;19931;-76
2021/09/30 05:20:37;;;;;;;;;;;;;;;;;;5136200;27;20331;-74
2021/09/30 05:23:03;;;;;;;;;;;;;;;;;;5135915;27;19923;-75
2021/09/30 05:25:30;;;;;;;;;;;;;;;;;;5135474;27;19924;-75
2021/09/30 05:27:56;;;;;;;;;;;;;;;;;;5135820;27;19923;-75
2021/09/30 05:30:22;;;;;;;;;;;;;;;;;;5135997;27;19930;-75
2021/09/30 05:32:48;;;;;;;;;;;;;;;;;;5136085;27;19924;-75
2021/09/30 05:35:15;;;;;;;;;;;;;;;;;;5135778;27;20385;-73
2021/09/30 05:37:41;;;;;;;;;;;;;;;;;;5135676;27;19928;-74
2021/09/30 05:40:13;;;;;;;;;;;;;;;;;;5136066;27;19923;-76
2021/09/30 05:42:39;;;;;;;;;;;;;;;;;;5135849;27;20031;-76
2021/09/30 05:45:07;;;;;;;;;;;;;;;;;;5135564;27;19930;-75
2021/09/30 05:47:33;;;;;;;;;;;;;;;;;;5135618;27;20270;-74
2021/09/30 05:50:00;;;;;;;;;;;;;;;;;;5135492;27;19930;-74
2021/09/30 05:52:26;;;;;;;;;;;;;;;;;;5135680;27;19924;-75
2021/09/30 05:54:52;;;;;;;;;;;;;;;;;;5135335;27;20372;-75
2021/09/30 05:57:19;;;;;;;;;;;;;;;;;;5135644;27;19923;-75
2021/09/30 05:59:45;;;;;;;;;;;;;;;;;;5135588;27;19924;-74
2021/09/30 06:10:38;;;;;;;;;;;;;;;;;;5135429;27;19918;-75
2021/09/30 06:13:07;;;;;;;;;;;;;;;;;;5135352;27;20348;-75
2021/09/30 06:15:36;;;;;;;;;;;;;;;;;;5134915;27;19930;-74
2021/09/30 06:18:03;;;;;;;;;;;;;;;;;;5134780;27;19931;-74
2021/09/30 06:20:29;;;;;;;;;;;;;;;;;;5135335;27;19923;-74
2021/09/30 06:22:55;;;;;;;;;;;;;;;;;;5135083;27;19931;-75
2021/09/30 06:25:22;;;;;;;;;;;;;;;;;;5134927;27;20385;-74
2021/09/30 06:27:48;;;;;;;;;;;;;;;;;;5134844;27;19923;-73
2021/09/30 06:30:15;;;;;;;;;;;;;;;;;;5134868;27;20397;-73
2021/09/30 06:32:41;;;;;;;;;;;;;;;;;;5135033;27;19935;-72
2021/09/30 06:35:07;;;;;;;;;;;;;;;;;;5134968;27;19923;-73
2021/09/30 06:37:34;;;;;;;;;;;;;;;;;;5133894;27;20373;-74
2021/09/30 06:40:00;;;;;;;;;;;;;;;;;;5134412;27;19924;-75
2021/09/30 06:42:26;;;;;;;;;;;;;;;;;;5134760;27;19930;-76
2021/09/30 06:44:52;;;;;;;;;;;;;;;;;;5134348;27;20297;-75
2021/09/30 06:47:19;;;;;;;;;;;;;;;;;;5134474;27;19931;-75
2021/09/30 06:49:45;;;;;;;;;;;;;;;;;;5134799;27;19923;-74
2021/09/30 06:52:11;;;;;;;;;;;;;;;;;;5134875;27;20411;-74
2021/09/30 06:54:38;;;;;;;;;;;;;;;;;;5137274;27;19924;-74
2021/09/30 06:57:04;;;;;;;;;;;;;;;;;;5157674;27;19929;-74
2021/09/30 06:59:34;;;;;;;;;;;;;;;;;;5159829;27;19908;-75
2021/09/30 07:02:04;;;;;;;;;;;;;;;;;;5139432;27;19966;-74
2021/09/30 07:04:30;;;;;;;;;;;;;;;;;;5134177;27;20346;-74
2021/09/30 07:06:56;;;;;;;;;;;;;;;;;;5133751;27;19924;-74
2021/09/30 07:09:22;;;;;;;;;;;;;;;;;;5134363;27;19923;-74
2021/09/30 07:11:49;;;;;;;;;;;;;;;;;;5133811;27;20305;-74
2021/09/30 07:14:15;;;;;;;;;;;;;;;;;;5134052;27;19924;-75
2021/09/30 07:16:41;;;;;;;;;;;;;;;;;;5133920;27;19934;-74
2021/09/30 07:19:08;;;;;;;;;;;;;;;;;;5133826;27;20370;-75
2021/09/30 07:21:34;;;;;;;;;;;;;;;;;;5133819;27;19924;-75
2021/09/30 07:24:00;;;;;;;;;;;;;;;;;;5133731;27;19924;-75
2021/09/30 07:26:27;;;;;;;;;;;;;;;;;;5134190;27;19923;-75
2021/09/30 07:28:53;;;;;;;;;;;;;;;;;;5133448;27;19930;-74
2021/09/30 07:31:20;;;;;;;;;;;;;;;;;;5133674;27;19923;-77
2021/09/30 07:33:46;;;;;;;;;;;;;;;;;;5133524;27;19935;-74
2021/09/30 07:36:13;;;;;;;;;;;;;;;;;;5133666;27;19923;-73
2021/09/30 07:38:39;;;;;;;;;;;;;;;;;;5133919;27;19923;-73
2021/09/30 07:41:06;;;;;;;;;;;;;;;;;;5133666;27;19930;-75
2021/09/30 07:43:32;;;;;;;;;;;;;;;;;;5133623;27;19923;-75
2021/09/30 07:45:58;;;;;;;;;;;;;;;;;;5133281;27;19924;-74
2021/09/30 07:48:25;;;;;;;;;;;;;;;;;;5133697;27;19924;-76
2021/09/30 07:50:51;;;;;;;;;;;;;;;;;;5133244;27;20284;-74
2021/09/30 07:53:17;;;;;;;;;;;;;;;;;;5133343;27;19931;-74
2021/09/30 07:55:44;;;;;;;;;;;;;;;;;;5133428;28;19931;-74
2021/09/30 07:58:10;;;;;;;;;;;;;;;;;;5133347;28;20377;-74
2021/09/30 08:00:36;;;;;;;;;;;;;;;;;;5133396;28;19924;-75
2021/09/30 08:03:04;;;;;;;;;;;;;;;;;;5133319;28;19923;-74
2021/09/30 08:05:30;;;;;;;;;;;;;;;;;;5133638;28;19930;-72
2021/09/30 08:07:56;;;;;;;;;;;;;;;;;;5133285;28;19930;-73
2021/09/30 08:10:22;;;;;;;;;;;;;;;;;;5133412;28;19923;-73
2021/09/30 08:12:49;;;;;;;;;;;;;;;;;;5133374;28;19930;-73
2021/09/30 08:15:15;;;;;;;;;;;;;;;;;;5133245;28;20009;-73
2021/09/30 08:17:41;;;;;;;;;;;;;;;;;;5133020;28;19927;-73
2021/09/30 08:20:08;;;;;;;;;;;;;;;;;;5133521;28;19930;-73
2021/09/30 08:22:34;;;;;;;;;;;;;;;;;;5133526;28;19947;-73
2021/09/30 08:25:00;;;;;;;;;;;;;;;;;;5132962;28;19930;-73
2021/09/30 08:27:26;;;;;;;;;;;;;;;;;;5133429;28;19930;-72
2021/09/30 08:29:55;;;;;;;;;;;;;;;;;;5132806;28;20266;-73
2021/09/30 08:32:21;;;;;;;;;;;;;;;;;;5133035;28;19966;-73
2021/09/30 08:34:47;;;;;;;;;;;;;;;;;;5133042;28;19924;-73
2021/09/30 08:37:13;;;;;;;;;;;;;;;;;;5132952;28;20403;-72
2021/09/30 08:39:40;;;;;;;;;;;;;;;;;;5133160;28;19930;-74
2021/09/30 08:42:06;;;;;;;;;;;;;;;;;;5132970;28;19923;-73
2021/09/30 08:44:33;;;;;;;;;;;;;;;;;;5133033;28;19962;-73
2021/09/30 08:47:00;;;;;;;;;;;;;;;;;;5132709;28;19924;-73
2021/09/30 08:49:26;;;;;;;;;;;;;;;;;;5133078;28;19976;-72
2021/09/30 08:51:52;;;;;;;;;;;;;;;;;;5132647;28;19936;-73
2021/09/30 08:54:19;;;;;;;;;;;;;;;;;;5132560;28;19929;-73
2021/09/30 08:56:45;;;;;;;;;;;;;;;;;;5132767;28;20301;-72
2021/09/30 08:59:11;;;;;;;;;;;;;;;;;;5132867;28;19930;-72
2021/09/30 09:01:37;;;;;;;;;;;;;;;;;;5135197;27;19930;-73
2021/09/30 09:04:04;;;;;;;;;;;;;;;;;;5136626;27;19923;-73
2021/09/30 09:06:30;;;;;;;;;;;;;;;;;;5136747;27;20384;-72
2021/09/30 09:08:57;;;;;;;;;;;;;;;;;;5136356;27;19923;-73
2021/09/30 09:11:23;;;;;;;;;;;;;;;;;;5136594;27;19927;-73
2021/09/30 09:13:49;;;;;;;;;;;;;;;;;;5136104;27;20259;-73
2021/09/30 09:16:15;;;;;;;;;;;;;;;;;;5136151;27;19924;-73
2021/09/30 09:18:46;;;;;;;;;;;;;;;;;;5136387;27;19923;-73
2021/09/30 09:21:13;;;;;;;;;;;;;;;;;;5136481;27;19927;-73
2021/09/30 09:23:39;;;;;;;;;;;;;;;;;;5136381;27;19924;-73
2021/09/30 09:26:05;;;;;;;;;;;;;;;;;;5136222;27;19923;-74
2021/09/30 09:28:32;;;;;;;;;;;;;;;;;;5136151;27;19924;-74
2021/09/30 09:30:58;;;;;;;;;;;;;;;;;;5136091;27;19931;-74
2021/09/30 09:33:27;;;;;;;;;;;;;;;;;;5136307;27;19923;-74
2021/09/30 09:35:55;;;;;;;;;;;;;;;;;;5135868;27;19950;-74
2021/09/30 09:38:21;;;;;;;;;;;;;;;;;;5136110;27;19939;-74
2021/09/30 09:40:47;;;;;;;;;;;;;;;;;;5135587;27;20365;-74
2021/09/30 09:43:14;;;;;;;;;;;;;;;;;;5135851;27;19932;-73
2021/09/30 09:45:40;;;;;;;;;;;;;;;;;;5136148;27;19930;-73
2021/09/30 09:48:06;;;;;;;;;;;;;;;;;;5135987;27;19927;-73
2021/09/30 09:50:32;;;;;;;;;;;;;;;;;;5135648;27;19934;-74
2021/09/30 09:52:59;;;;;;;;;;;;;;;;;;5135725;27;19976;-73
2021/09/30 09:55:25;;;;;;;;;;;;;;;;;;5135371;27;19923;-73
2021/09/30 09:57:51;;;;;;;;;;;;;;;;;;5135293;27;19930;-74
2021/09/30 10:00:18;;;;;;;;;;;;;;;;;;5135792;27;20031;-73
2021/09/30 10:02:44;;;;;;;;;;;;;;;;;;5135254;27;19923;-72
2021/09/30 10:05:10;;;;;;;;;;;;;;;;;;5135400;27;19930;-73
2021/09/30 10:07:37;;;;;;;;;;;;;;;;;;5135706;27;19930;-76
2021/09/30 10:10:03;;;;;;;;;;;;;;;;;;5135022;27;20381;-74
2021/09/30 10:12:29;;;;;;;;;;;;;;;;;;5135263;27;19924;-75
2021/09/30 10:14:55;;;;;;;;;;;;;;;;;;5135349;27;19946;-74
2021/09/30 10:17:22;;;;;;;;;;;;;;;;;;5135474;27;19923;-75
2021/09/30 10:19:48;;;;;;;;;;;;;;;;;;5135080;27;19924;-74
2021/09/30 10:22:14;;;;;;;;;;;;;;;;;;5135476;27;19923;-73
2021/09/30 10:24:41;;;;;;;;;;;;;;;;;;5134944;27;19924;-74
2021/09/30 10:27:07;;;;;;;;;;;;;;;;;;5135014;27;19930;-73
2021/09/30 10:29:33;;;;;;;;;;;;;;;;;;5134853;27;19934;-74
2021/09/30 10:32:00;;;;;;;;;;;;;;;;;;5134807;27;19929;-74
2021/09/30 10:34:26;;;;;;;;;;;;;;;;;;5134845;27;20365;-74
2021/09/30 10:36:52;;;;;;;;;;;;;;;;;;5134521;27;19923;-75
2021/09/30 10:39:21;;;;;;;;;;;;;;;;;;5135077;27;19923;-75
2021/09/30 10:41:48;;;;;;;;;;;;;;;;;;5134694;27;19923;-75
2021/09/30 10:44:14;;;;;;;;;;;;;;;;;;5134568;27;19934;-75
2021/09/30 10:46:42;;;;;;;;;;;;;;;;;;5134491;27;19924;-74
2021/09/30 10:49:08;;;;;;;;;;;;;;;;;;5134772;27;19923;-74
2021/09/30 10:51:34;;;;;;;;;;;;;;;;;;5134502;27;20392;-75
2021/09/30 10:54:01;;;;;;;;;;;;;;;;;;5134260;27;19924;-74
2021/09/30 10:56:27;;;;;;;;;;;;;;;;;;5142347;27;19929;-75
2021/09/30 10:58:53;;;;;;;;;;;;;;;;;;5159442;27;19919;-74
2021/09/30 11:01:20;;;;;;;;;;;;;;;;;;5158937;27;19907;-73
2021/09/30 11:03:46;;;;;;;;;;;;;;;;;;5136127;27;19923;-75
2021/09/30 11:06:14;;;;;;;;;;;;;;;;;;5135089;27;19924;-74
2021/09/30 11:08:40;;;;;;;;;;;;;;;;;;5134627;27;20377;-75
2021/09/30 11:11:07;;;;;;;;;;;;;;;;;;5134466;27;20018;-75
2021/09/30 11:13:33;;;;;;;;;;;;;;;;;;5134219;27;19923;-75
2021/09/30 11:16:00;;;;;;;;;;;;;;;;;;5133510;27;19931;-74
2021/09/30 11:18:26;;;;;;;;;;;;;;;;;;5134304;27;19931;-75
2021/09/30 11:20:52;;;;;;;;;;;;;;;;;;5133787;27;20289;-74
2021/09/30 11:23:18;;;;;;;;;;;;;;;;;;5133496;27;19930;-74
2021/09/30 11:25:45;;;;;;;;;;;;;;;;;;5133898;27;19927;-74
2021/09/30 11:28:11;;;;;;;;;;;;;;;;;;5134106;27;19978;-75
2021/09/30 11:30:37;;;;;;;;;;;;;;;;;;5133798;27;19923;-76
2021/09/30 11:33:04;;;;;;;;;;;;;;;;;;5134106;27;19930;-74
2021/09/30 11:35:30;;;;;;;;;;;;;;;;;;5133658;27;20478;-75
2021/09/30 11:37:56;;;;;;;;;;;;;;;;;;5133342;27;20335;-75
2021/09/30 11:40:23;;;;;;;;;;;;;;;;;;5133542;27;19929;-75
2021/09/30 11:42:49;;;;;;;;;;;;;;;;;;5133537;27;19930;-75
2021/09/30 11:45:15;;;;;;;;;;;;;;;;;;5133574;27;20305;-73
2021/09/30 11:47:41;;;;;;;;;;;;;;;;;;5133182;27;20381;-74
2021/09/30 11:50:08;;;;;;;;;;;;;;;;;;5133299;27;19923;-74
2021/09/30 11:52:34;;;;;;;;;;;;;;;;;;5133630;27;19923;-74
2021/09/30 11:55:00;;;;;;;;;;;;;;;;;;5133008;27;20354;-76
2021/09/30 11:57:27;;;;;;;;;;;;;;;;;;5133282;28;19923;-75
2021/09/30 11:59:53;;;;;;;;;;;;;;;;;;5133469;28;19939;-74
2021/09/30 12:02:21;;;;;;;;;;;;;;;;;;5133227;28;20385;-74
2021/09/30 12:04:47;;;;;;;;;;;;;;;;;;5133239;28;20351;-74
2021/09/30 12:07:14;;;;;;;;;;;;;;;;;;5133572;28;19968;-74
2021/09/30 12:09:40;;;;;;;;;;;;;;;;;;5133513;28;19923;-75
2021/09/30 12:12:06;;;;;;;;;;;;;;;;;;5133289;28;19924;-75
2021/09/30 12:14:33;;;;;;;;;;;;;;;;;;5133545;28;19935;-73
2021/09/30 12:17:00;;;;;;;;;;;;;;;;;;5132760;28;20377;-74
2021/09/30 12:19:27;;;;;;;;;;;;;;;;;;5132991;28;19969;-75
2021/09/30 12:21:53;;;;;;;;;;;;;;;;;;5132892;28;19930;-75
2021/09/30 12:24:19;;;;;;;;;;;;;;;;;;5133055;28;19923;-75
2021/09/30 12:26:45;;;;;;;;;;;;;;;;;;5132766;28;19953;-75
2021/09/30 12:29:12;;;;;;;;;;;;;;;;;;5133401;28;19930;-74
2021/09/30 12:31:38;;;;;;;;;;;;;;;;;;5133100;28;20412;-74
2021/09/30 12:34:04;;;;;;;;;;;;;;;;;;5133110;28;19924;-75
2021/09/30 12:36:31;;;;;;;;;;;;;;;;;;5135995;27;19961;-74
2021/09/30 12:38:57;;;;;;;;;;;;;;;;;;5136828;27;20393;-73
2021/09/30 12:41:23;;;;;;;;;;;;;;;;;;5137155;27;19923;-73
2021/09/30 12:43:50;;;;;;;;;;;;;;;;;;5136625;27;19923;-74
2021/09/30 12:46:17;;;;;;;;;;;;;;;;;;5137349;27;19928;-74
2021/09/30 12:48:48;;;;;;;;;;;;;;;;;;5137011;27;19923;-74
2021/09/30 12:51:14;;;;;;;;;;;;;;;;;;5136697;27;19923;-74
2021/09/30 12:53:40;;;;;;;;;;;;;;;;;;5136588;27;19931;-73
2021/09/30 12:56:07;;;;;;;;;;;;;;;;;;5137080;27;19924;-74
2021/09/30 12:58:33;;;;;;;;;;;;;;;;;;5136692;27;20386;-73
2021/09/30 13:00:59;;;;;;;;;;;;;;;;;;5136246;27;19927;-74
2021/09/30 13:03:26;;;;;;;;;;;;;;;;;;5136529;27;20373;-74
2021/09/30 13:05:52;;;;;;;;;;;;;;;;;;5136301;27;20353;-74
2021/09/30 13:08:18;;;;;;;;;;;;;;;;;;5136454;27;20353;-74
2021/09/30 13:10:45;;;;;;;;;;;;;;;;;;5136343;27;19929;-74
2021/09/30 13:13:11;;;;;;;;;;;;;;;;;;5136708;27;19931;-75
2021/09/30 13:15:37;;;;;;;;;;;;;;;;;;5136231;27;20293;-74
2021/09/30 13:18:04;;;;;;;;;;;;;;;;;;5136092;27;19924;-74
2021/09/30 13:20:30;;;;;;;;;;;;;;;;;;5136341;27;20014;-73
2021/09/30 13:22:56;;;;;;;;;;;;;;;;;;5136193;27;19927;-74
2021/09/30 13:25:23;;;;;;;;;;;;;;;;;;5136229;27;20396;-74
2021/09/30 13:27:49;;;;;;;;;;;;;;;;;;5135938;27;19923;-74
2021/09/30 13:30:15;;;;;;;;;;;;;;;;;;5136291;27;19924;-73
2021/09/30 13:32:42;;;;;;;;;;;;;;;;;;5136151;27;19923;-73
2021/09/30 13:35:08;;;;;;;;;;;;;;;;;;5136080;27;20377;-73
2021/09/30 13:37:34;;;;;;;;;;;;;;;;;;5136271;27;19923;-73
2021/09/30 13:40:00;;;;;;;;;;;;;;;;;;5135971;27;19923;-74
2021/09/30 13:42:27;;;;;;;;;;;;;;;;;;5136601;27;19927;-74
2021/09/30 13:44:54;;;;;;;;;;;;;;;;;;5135904;27;20305;-73
2021/09/30 13:47:20;;;;;;;;;;;;;;;;;;5131881;27;19946;-73
2021/09/30 13:49:47;;;;;;;;;;;;;;;;;;5125036;27;20456;-72
2021/09/30 13:52:13;;;;;;;;;;;;;;;;;;5128190;27;19930;-72
2021/09/30 13:54:39;;;;;;;;;;;;;;;;;;5135547;27;19930;-71
2021/09/30 13:57:06;;;;;;;;;;;;;;;;;;5116809;27;20370;-72
2021/09/30 13:59:32;;;;;;;;;;;;;;;;;;5114827;28;19924;-72
2021/09/30 14:01:58;;;;;;;;;;;;;;;;;;5114756;28;19924;-73
2021/09/30 14:04:24;;;;;;;;;;;;;;;;;;5123022;27;19923;-72
2021/09/30 14:06:52;;;;;;;;;;;;;;;;;;5135523;27;19924;-72
2021/09/30 14:09:18;;;;;;;;;;;;;;;;;;5135298;27;20038;-72
2021/09/30 14:11:45;;;;;;;;;;;;;;;;;;5135413;27;19930;-72
2021/09/30 14:14:11;;;;;;;;;;;;;;;;;;5135314;27;19923;-71
2021/09/30 14:16:37;;;;;;;;;;;;;;;;;;5135371;27;19943;-72
2021/09/30 14:19:04;;;;;;;;;;;;;;;;;;5134678;27;20446;-72
2021/09/30 14:21:30;;;;;;;;;;;;;;;;;;5126798;27;19930;-72
2021/09/30 14:23:56;;;;;;;;;;;;;;;;;;5114571;28;19924;-74
2021/09/30 14:26:23;;;;;;;;;;;;;;;;;;5114477;28;20396;-72
2021/09/30 14:28:50;;;;;;;;;;;;;;;;;;5114106;28;20026;-72
2021/09/30 14:31:16;;;;;;;;;;;;;;;;;;5114694;28;19924;-73
2021/09/30 14:33:42;;;;;;;;;;;;;;;;;;5114290;28;19924;-72
2021/09/30 14:36:08;;;;;;;;;;;;;;;;;;5114291;28;19930;-73
2021/09/30 14:38:35;;;;;;;;;;;;;;;;;;5114407;28;19931;-72
2021/09/30 14:41:01;;;;;;;;;;;;;;;;;;5113912;28;20808;-72
2021/09/30 14:43:29;;;;;;;;;;;;;;;;;;5113939;28;20009;-72
2021/09/30 14:45:55;;;;;;;;;;;;;;;;;;5114021;28;19931;-72
2021/09/30 14:48:21;;;;;;;;;;;;;;;;;;5114299;28;19924;-72
2021/09/30 14:50:48;;;;;;;;;;;;;;;;;;5113730;28;19928;-72
2021/09/30 14:53:14;;;;;;;;;;;;;;;;;;5113894;28;19930;-72
2021/09/30 14:55:40;;;;;;;;;;;;;;;;;;5122558;27;19930;-72
2021/09/30 14:58:07;;;;;;;;;;;;;;;;;;5134162;27;20381;-72
2021/09/30 15:00:33;;;;;;;;;;;;;;;;;;5134692;27;20022;-70
2021/09/30 15:03:02;;;;;;;;;;;;;;;;;;5140100;27;19930;-69
2021/09/30 15:05:28;;;;;;;;;;;;;;;;;;5149538;27;19963;-70
2021/09/30 15:07:55;;;;;;;;;;;;;;;;;;5140019;27;19923;-70
2021/09/30 15:10:21;;;;;;;;;;;;;;;;;;5134261;27;20285;-70
2021/09/30 15:12:47;;;;;;;;;;;;;;;;;;5133889;27;19943;-70
2021/09/30 15:15:14;;;;;;;;;;;;;;;;;;5134242;27;20380;-70
2021/09/30 15:17:53;;;;;;;;;;;;;;;;;;5133958;27;19923;-70
2021/09/30 15:22:59;;;;;;;;;;;;;;;;;;5132667;27;19967;-70
2021/09/30 15:25:28;;;;;;;;;;;;;;;;;;5134132;27;19929;-70
2021/09/30 15:27:54;;;;;;;;;;;;;;;;;;5133424;27;20026;-70
2021/09/30 15:30:20;;;;;;;;;;;;;;;;;;5134103;27;19930;-70
2021/09/30 15:32:46;;;;;;;;;;;;;;;;;;5133846;27;20316;-71
2021/09/30 15:35:13;;;;;;;;;;;;;;;;;;5133793;27;19923;-70
2021/09/30 15:37:40;;;;;;;;;;;;;;;;;;5134222;27;19945;-71
2021/09/30 15:40:06;;;;;;;;;;;;;;;;;;5133791;27;19924;-72
2021/09/30 15:42:33;;;;;;;;;;;;;;;;;;5133460;27;19923;-71
2021/09/30 15:44:59;;;;;;;;;;;;;;;;;;5133383;27;19923;-72
2021/09/30 15:47:25;;;;;;;;;;;;;;;;;;5133894;27;19930;-71
2021/09/30 15:49:52;;;;;;;;;;;;;;;;;;5133455;27;19923;-71
2021/09/30 15:52:18;;;;;;;;;;;;;;;;;;5133656;27;20405;-73
2021/09/30 15:54:45;;;;;;;;;;;;;;;;;;5132488;27;19930;-73
2021/09/30 15:57:11;;;;;;;;;;;;;;;;;;5113052;28;19924;-72
2021/09/30 15:59:37;;;;;;;;;;;;;;;;;;5112680;28;19930;-72
2021/09/30 16:02:03;;;;;;;;;;;;;;;;;;5112969;28;20013;-72
2021/09/30 16:04:30;;;;;;;;;;;;;;;;;;5112789;28;20297;-72
2021/09/30 16:06:56;;;;;;;;;;;;;;;;;;5112579;28;19924;-72
2021/09/30 16:09:22;;;;;;;;;;;;;;;;;;5113185;28;19923;-73
2021/09/30 16:11:49;;;;;;;;;;;;;;;;;;5116719;28;20406;-72
2021/09/30 16:14:15;;;;;;;;;;;;;;;;;;5116981;28;19931;-72
2021/09/30 16:16:41;;;;;;;;;;;;;;;;;;5117081;28;19930;-72
2021/09/30 16:19:08;;;;;;;;;;;;;;;;;;5117131;28;19932;-72
2021/09/30 16:21:34;;;;;;;;;;;;;;;;;;5116817;28;20366;-71
2021/09/30 16:24:00;;;;;;;;;;;;;;;;;;5116789;28;19924;-72
2021/09/30 16:26:26;;;;;;;;;;;;;;;;;;5117133;28;19946;-70
2021/09/30 16:28:55;;;;;;;;;;;;;;;;;;5116376;28;19923;-68
2021/09/30 16:31:21;;;;;;;;;;;;;;;;;;5116909;28;19939;-69
2021/09/30 16:33:48;;;;;;;;;;;;;;;;;;5116773;28;19944;-70
2021/09/30 16:36:14;;;;;;;;;;;;;;;;;;5116694;28;19923;-69
2021/09/30 16:38:41;;;;;;;;;;;;;;;;;;5116422;28;19931;-69
2021/09/30 16:41:07;;;;;;;;;;;;;;;;;;5116784;28;19924;-70
2021/09/30 16:43:34;;;;;;;;;;;;;;;;;;5116859;28;19977;-71
2021/09/30 16:46:01;;;;;;;;;;;;;;;;;;5116156;28;20408;-71
2021/09/30 16:48:28;;;;;;;;;;;;;;;;;;5116642;28;20293;-71
2021/09/30 16:50:54;;;;;;;;;;;;;;;;;;5115886;28;19924;-71
2021/09/30 16:53:21;;;;;;;;;;;;;;;;;;5116214;28;19931;-71
2021/09/30 16:55:48;;;;;;;;;;;;;;;;;;5125641;27;19931;-71
2021/09/30 16:58:14;;;;;;;;;;;;;;;;;;5136569;27;19930;-72
2021/09/30 17:00:40;;;;;;;;;;;;;;;;;;5136969;27;19923;-70
2021/09/30 17:03:06;;;;;;;;;;;;;;;;;;5137059;27;19945;-70
2021/09/30 17:05:33;;;;;;;;;;;;;;;;;;5136509;27;19930;-71
2021/09/30 17:07:59;;;;;;;;;;;;;;;;;;5136488;27;19927;-71
2021/09/30 17:10:25;;;;;;;;;;;;;;;;;;5136827;27;20273;-70
2021/09/30 17:12:52;;;;;;;;;;;;;;;;;;5136214;27;19935;-70
2021/09/30 17:15:18;;;;;;;;;;;;;;;;;;5136612;27;19923;-70
2021/09/30 17:17:47;;;;;;;;;;;;;;;;;;5136061;27;19924;-69
2021/09/30 17:20:13;;;;;;;;;;;;;;;;;;5136526;27;19924;-70
2021/09/30 17:22:40;;;;;;;;;;;;;;;;;;5135502;27;20420;-70
2021/09/30 17:25:06;;;;;;;;;;;;;;;;;;5136283;27;19924;-70
2021/09/30 17:27:36;;;;;;;;;;;;;;;;;;5139480;27;19930;-70
2021/09/30 17:30:02;;;;;;;;;;;;;;;;;;5135752;27;19927;-70
2021/09/30 17:32:28;;;;;;;;;;;;;;;;;;5136352;27;19923;-70
2021/09/30 17:34:56;;;;;;;;;;;;;;;;;;5136070;27;19923;-71
2021/09/30 17:37:22;;;;;;;;;;;;;;;;;;5135821;27;20453;-70
2021/09/30 17:39:48;;;;;;;;;;;;;;;;;;5135798;27;19930;-70
2021/09/30 17:42:15;;;;;;;;;;;;;;;;;;5136143;27;19923;-71
2021/09/30 17:44:41;;;;;;;;;;;;;;;;;;5135865;27;20399;-70
2021/09/30 17:47:07;;;;;;;;;;;;;;;;;;5135764;27;19923;-71
2021/09/30 17:49:34;;;;;;;;;;;;;;;;;;5135895;27;19927;-71
2021/09/30 17:52:00;;;;;;;;;;;;;;;;;;5135393;27;20404;-70
2021/09/30 17:54:26;;;;;;;;;;;;;;;;;;5134530;27;19924;-70
2021/09/30 17:56:53;;;;;;;;;;;;;;;;;;5134854;27;19924;-70
2021/09/30 17:59:19;;;;;;;;;;;;;;;;;;5133790;27;20405;-70
2021/09/30 18:01:45;;;;;;;;;;;;;;;;;;5132894;27;19924;-69
2021/09/30 18:04:11;;;;;;;;;;;;;;;;;;5134076;27;19929;-70
2021/09/30 18:06:38;;;;;;;;;;;;;;;;;;5135247;27;20281;-69
2021/09/30 18:09:04;;;;;;;;;;;;;;;;;;5135172;27;19931;-69
2021/09/30 18:11:32;;;;;;;;;;;;;;;;;;5135645;27;19934;-69
2021/09/30 18:14:00;;;;;;;;;;;;;;;;;;5134949;27;19923;-69
2021/09/30 18:16:26;;;;;;;;;;;;;;;;;;5135645;27;19945;-69
2021/09/30 18:18:55;;;;;;;;;;;;;;;;;;5134842;27;20391;-69
2021/09/30 18:21:21;;;;;;;;;;;;;;;;;;5135039;27;19961;-69
2021/09/30 18:23:49;;;;;;;;;;;;;;;;;;5134844;27;20290;-69
2021/09/30 18:26:15;;;;;;;;;;;;;;;;;;5134956;27;20447;-69
2021/09/30 18:28:41;;;;;;;;;;;;;;;;;;5134823;27;19923;-69
2021/09/30 18:31:08;;;;;;;;;;;;;;;;;;5135269;27;19930;-69
2021/09/30 18:33:36;;;;;;;;;;;;;;;;;;5133945;27;19930;-69
2021/09/30 18:36:03;;;;;;;;;;;;;;;;;;5134344;27;19978;-69
2021/09/30 18:38:29;;;;;;;;;;;;;;;;;;5134658;27;20092;-70
2021/09/30 18:40:55;;;;;;;;;;;;;;;;;;5134753;27;19924;-69
2021/09/30 18:43:22;;;;;;;;;;;;;;;;;;5134976;27;19924;-69
2021/09/30 18:45:48;;;;;;;;;;;;;;;;;;5134515;27;19923;-69
2021/09/30 18:48:14;;;;;;;;;;;;;;;;;;5134951;27;19923;-69
2021/09/30 18:50:41;;;;;;;;;;;;;;;;;;5134475;27;19928;-69
2021/09/30 18:53:07;;;;;;;;;;;;;;;;;;5134808;27;19993;-69
2021/09/30 18:55:33;;;;;;;;;;;;;;;;;;5134169;27;19923;-69
2021/09/30 18:57:59;;;;;;;;;;;;;;;;;;5134317;27;19949;-69
2021/09/30 19:00:26;;;;;;;;;;;;;;;;;;5134589;27;19924;-69
2021/09/30 19:02:52;;;;;;;;;;;;;;;;;;5134554;27;19930;-69
2021/09/30 19:05:18;;;;;;;;;;;;;;;;;;5134639;27;19977;-69
2021/09/30 19:07:45;;;;;;;;;;;;;;;;;;5134506;27;20303;-69